sensor_id;sensor_type;location;lat;lon;timestamp;temperature;humidity
12720;DHT22;6424;48.520;11.228;2023-02-28T00:01:40;-1.80;99.90
12720;DHT22;6424;48.520;11.228;2023-02-28T00:04:21;-1.80;99.90
12720;DHT22;6424;48.520;11.228;2023-02-28T00:07:02;-1.80;99.90
12720;DHT22;6424;48.520;11.228;2023-02-28T00:09:42;-1.90;99.90
12720;DHT22;6424;48.520;11.228;2023-02-28T00:12:24;-1.90;99.90
12720;DHT22;6424;48.520;11.228;2023-02-28T00:15:06;-1.90;99.90
12720;DHT22;6424;48.520;11.228;2023-02-28T00:17:47;-1.90;99.90
12720;DHT22;6424;48.520;11.228;2023-02-28T00:20:28;-1.90;99.90
12720;DHT22;6424;48.520;11.228;2023-02-28T00:23:10;-1.90;99.90
12720;DHT22;6424;48.520;11.228;2023-02-28T00:25:51;-2.00;99.90
12720;DHT22;6424;48.520;11.228;2023-02-28T00:28:32;-2.00;99.90
12720;DHT22;6424;48.520;11.228;2023-02-28T00:31:12;-2.00;99.90
12720;DHT22;6424;48.520;11.228;2023-02-28T00:33:53;-2.00;99.90
12720;DHT22;6424;48.520;11.228;2023-02-28T00:36:34;-2.00;99.90
12720;DHT22;6424;48.520;11.228;2023-02-28T00:39:15;-2.00;99.90
12720;DHT22;6424;48.520;11.228;2023-02-28T00:41:56;-2.00;99.90
12720;DHT22;6424;48.520;11.228;2023-02-28T00:44:37;-2.10;99.90
12720;DHT22;6424;48.520;11.228;2023-02-28T00:47:17;-2.10;99.90
12720;DHT22;6424;48.520;11.228;2023-02-28T00:49:58;-2.20;99.90
12720;DHT22;6424;48.520;11.228;2023-02-28T00:52:24;-2.30;99.90
12720;DHT22;6424;48.520;11.228;2023-02-28T00:55:05;-2.20;99.90
12720;DHT22;6424;48.520;11.228;2023-02-28T00:57:46;-2.30;99.90
12720;DHT22;6424;48.520;11.228;2023-02-28T01:00:27;-2.30;99.90
12720;DHT22;6424;48.520;11.228;2023-02-28T01:03:08;-2.30;99.90
12720;DHT22;6424;48.520;11.228;2023-02-28T01:05:48;-2.30;99.90
12720;DHT22;6424;48.520;11.228;2023-02-28T01:08:29;-2.40;99.90
12720;DHT22;6424;48.520;11.228;2023-02-28T01:11:12;-2.30;99.90
12720;DHT22;6424;48.520;11.228;2023-02-28T01:13:53;-2.30;99.90
12720;DHT22;6424;48.520;11.228;2023-02-28T01:16:33;-2.40;99.90
12720;DHT22;6424;48.520;11.228;2023-02-28T01:19:14;-2.40;99.90
12720;DHT22;6424;48.520;11.228;2023-02-28T01:21:56;-2.40;99.90
12720;DHT22;6424;48.520;11.228;2023-02-28T01:24:37;-2.40;99.90
12720;DHT22;6424;48.520;11.228;2023-02-28T01:27:18;-2.40;99.90
12720;DHT22;6424;48.520;11.228;2023-02-28T01:29:59;-2.40;99.90
12720;DHT22;6424;48.520;11.228;2023-02-28T01:32:40;-2.40;99.90
12720;DHT22;6424;48.520;11.228;2023-02-28T01:35:06;-2.40;99.90
12720;DHT22;6424;48.520;11.228;2023-02-28T01:37:46;-2.40;99.90
12720;DHT22;6424;48.520;11.228;2023-02-28T01:40:27;-2.40;99.90
12720;DHT22;6424;48.520;11.228;2023-02-28T01:43:20;-2.40;99.90
12720;DHT22;6424;48.520;11.228;2023-02-28T01:46:01;-2.40;99.90
12720;DHT22;6424;48.520;11.228;2023-02-28T01:48:51;-2.40;99.90
12720;DHT22;6424;48.520;11.228;2023-02-28T01:51:51;-2.40;99.90
12720;DHT22;6424;48.520;11.228;2023-02-28T01:54:35;-2.40;99.90
12720;DHT22;6424;48.520;11.228;2023-02-28T01:57:18;-2.40;99.90
12720;DHT22;6424;48.520;11.228;2023-02-28T02:00:02;-2.40;99.90
12720;DHT22;6424;48.520;11.228;2023-02-28T02:02:52;-2.40;99.90
12720;DHT22;6424;48.520;11.228;2023-02-28T02:05:36;-2.40;99.90
12720;DHT22;6424;48.520;11.228;2023-02-28T02:08:21;-2.40;99.90
12720;DHT22;6424;48.520;11.228;2023-02-28T02:11:03;-2.40;99.90
12720;DHT22;6424;48.520;11.228;2023-02-28T02:34:23;-2.40;99.90
12720;DHT22;6424;48.520;11.228;2023-02-28T02:39:48;-2.40;99.90
12720;DHT22;6424;48.520;11.228;2023-02-28T02:45:36;-2.40;99.90
12720;DHT22;6424;48.520;11.228;2023-02-28T02:48:20;-2.50;99.90
12720;DHT22;6424;48.520;11.228;2023-02-28T02:51:07;-2.50;99.90
12720;DHT22;6424;48.520;11.228;2023-02-28T02:54:06;-2.50;99.90
12720;DHT22;6424;48.520;11.228;2023-02-28T02:56:50;-2.50;99.90
12720;DHT22;6424;48.520;11.228;2023-02-28T02:59:32;-2.50;99.90
12720;DHT22;6424;48.520;11.228;2023-02-28T03:02:15;-2.50;99.90
12720;DHT22;6424;48.520;11.228;2023-02-28T03:04:59;-2.50;99.90
12720;DHT22;6424;48.520;11.228;2023-02-28T03:07:41;-2.50;99.90
12720;DHT22;6424;48.520;11.228;2023-02-28T03:10:51;-2.50;99.90
12720;DHT22;6424;48.520;11.228;2023-02-28T03:16:10;-2.70;99.90
12720;DHT22;6424;48.520;11.228;2023-02-28T03:24:50;-2.60;99.90
12720;DHT22;6424;48.520;11.228;2023-02-28T03:28:00;-2.60;99.90
12720;DHT22;6424;48.520;11.228;2023-02-28T03:33:39;-2.70;99.90
12720;DHT22;6424;48.520;11.228;2023-02-28T03:36:29;-2.70;99.90
12720;DHT22;6424;48.520;11.228;2023-02-28T03:39:03;-2.70;99.90
12720;DHT22;6424;48.520;11.228;2023-02-28T03:41:58;-2.70;99.90
12720;DHT22;6424;48.520;11.228;2023-02-28T03:44:47;-2.80;99.90
12720;DHT22;6424;48.520;11.228;2023-02-28T03:47:41;-2.80;99.90
12720;DHT22;6424;48.520;11.228;2023-02-28T03:50:37;-2.80;99.90
12720;DHT22;6424;48.520;11.228;2023-02-28T03:53:32;-2.80;99.90
12720;DHT22;6424;48.520;11.228;2023-02-28T03:56:22;-2.90;99.90
12720;DHT22;6424;48.520;11.228;2023-02-28T03:59:13;-2.80;99.90
12720;DHT22;6424;48.520;11.228;2023-02-28T04:01:54;-2.80;99.90
12720;DHT22;6424;48.520;11.228;2023-02-28T04:04:35;-2.70;99.90
12720;DHT22;6424;48.520;11.228;2023-02-28T04:07:17;-2.80;99.90
12720;DHT22;6424;48.520;11.228;2023-02-28T04:09:58;-2.80;99.90
12720;DHT22;6424;48.520;11.228;2023-02-28T04:12:39;-2.80;99.90
12720;DHT22;6424;48.520;11.228;2023-02-28T04:15:05;-2.80;99.90
12720;DHT22;6424;48.520;11.228;2023-02-28T04:17:31;-2.80;99.90
12720;DHT22;6424;48.520;11.228;2023-02-28T04:20:12;-2.70;99.90
12720;DHT22;6424;48.520;11.228;2023-02-28T04:22:38;-2.80;99.90
12720;DHT22;6424;48.520;11.228;2023-02-28T04:25:19;-2.80;99.90
12720;DHT22;6424;48.520;11.228;2023-02-28T04:28:00;-2.80;99.90
12720;DHT22;6424;48.520;11.228;2023-02-28T04:30:40;-2.80;99.90
12720;DHT22;6424;48.520;11.228;2023-02-28T04:33:21;-2.80;99.90
12720;DHT22;6424;48.520;11.228;2023-02-28T04:36:05;-2.80;99.90
12720;DHT22;6424;48.520;11.228;2023-02-28T04:38:46;-2.80;99.90
12720;DHT22;6424;48.520;11.228;2023-02-28T04:41:27;-2.80;99.90
12720;DHT22;6424;48.520;11.228;2023-02-28T04:44:08;-2.90;99.90
12720;DHT22;6424;48.520;11.228;2023-02-28T04:46:49;-2.80;99.90
12720;DHT22;6424;48.520;11.228;2023-02-28T04:49:30;-2.90;99.90
12720;DHT22;6424;48.520;11.228;2023-02-28T04:52:11;-2.90;99.90
12720;DHT22;6424;48.520;11.228;2023-02-28T04:54:53;-2.90;99.90
12720;DHT22;6424;48.520;11.228;2023-02-28T04:57:34;-2.90;99.90
12720;DHT22;6424;48.520;11.228;2023-02-28T05:00:15;-2.90;99.90
12720;DHT22;6424;48.520;11.228;2023-02-28T05:02:57;-2.80;99.90
12720;DHT22;6424;48.520;11.228;2023-02-28T05:05:37;-2.90;99.90
12720;DHT22;6424;48.520;11.228;2023-02-28T05:08:18;-3.00;99.90
12720;DHT22;6424;48.520;11.228;2023-02-28T05:11:00;-3.00;99.90
12720;DHT22;6424;48.520;11.228;2023-02-28T05:13:44;-3.00;99.90
12720;DHT22;6424;48.520;11.228;2023-02-28T05:16:25;-3.00;99.90
12720;DHT22;6424;48.520;11.228;2023-02-28T05:19:06;-3.10;99.90
12720;DHT22;6424;48.520;11.228;2023-02-28T05:21:54;-3.10;99.90
12720;DHT22;6424;48.520;11.228;2023-02-28T05:24:35;-3.00;99.90
12720;DHT22;6424;48.520;11.228;2023-02-28T05:27:16;-3.00;99.90
12720;DHT22;6424;48.520;11.228;2023-02-28T05:29:57;-3.00;99.90
12720;DHT22;6424;48.520;11.228;2023-02-28T05:32:40;-3.00;99.90
12720;DHT22;6424;48.520;11.228;2023-02-28T05:35:11;-3.10;99.90
12720;DHT22;6424;48.520;11.228;2023-02-28T05:37:52;-3.20;99.90
12720;DHT22;6424;48.520;11.228;2023-02-28T05:40:33;-3.20;99.90
12720;DHT22;6424;48.520;11.228;2023-02-28T05:43:13;-3.20;99.90
12720;DHT22;6424;48.520;11.228;2023-02-28T05:45:54;-3.20;99.90
12720;DHT22;6424;48.520;11.228;2023-02-28T05:48:36;-3.20;99.90
12720;DHT22;6424;48.520;11.228;2023-02-28T05:51:17;-3.30;99.90
12720;DHT22;6424;48.520;11.228;2023-02-28T05:53:59;-3.30;99.90
12720;DHT22;6424;48.520;11.228;2023-02-28T05:56:41;-3.40;99.90
12720;DHT22;6424;48.520;11.228;2023-02-28T05:59:24;-3.50;99.90
12720;DHT22;6424;48.520;11.228;2023-02-28T06:02:06;-3.40;99.90
12720;DHT22;6424;48.520;11.228;2023-02-28T06:04:49;-3.50;99.90
12720;DHT22;6424;48.520;11.228;2023-02-28T06:07:29;-3.50;99.90
12720;DHT22;6424;48.520;11.228;2023-02-28T06:10:11;-3.50;99.90
12720;DHT22;6424;48.520;11.228;2023-02-28T06:12:52;-3.50;99.90
12720;DHT22;6424;48.520;11.228;2023-02-28T06:15:17;-3.50;99.90
12720;DHT22;6424;48.520;11.228;2023-02-28T06:17:59;-3.50;99.90
12720;DHT22;6424;48.520;11.228;2023-02-28T06:20:40;-3.60;99.90
12720;DHT22;6424;48.520;11.228;2023-02-28T06:23:21;-3.50;99.90
12720;DHT22;6424;48.520;11.228;2023-02-28T06:26:02;-3.50;99.90
12720;DHT22;6424;48.520;11.228;2023-02-28T06:28:43;-3.60;99.90
12720;DHT22;6424;48.520;11.228;2023-02-28T06:31:24;-3.50;99.90
12720;DHT22;6424;48.520;11.228;2023-02-28T06:34:06;-3.50;99.90
12720;DHT22;6424;48.520;11.228;2023-02-28T06:36:47;-3.40;99.90
12720;DHT22;6424;48.520;11.228;2023-02-28T06:39:31;-3.40;99.90
12720;DHT22;6424;48.520;11.228;2023-02-28T06:42:12;-3.40;99.90
12720;DHT22;6424;48.520;11.228;2023-02-28T06:44:52;-3.40;99.90
12720;DHT22;6424;48.520;11.228;2023-02-28T06:47:33;-3.40;99.90
12720;DHT22;6424;48.520;11.228;2023-02-28T06:49:59;-3.30;99.90
12720;DHT22;6424;48.520;11.228;2023-02-28T06:52:41;-3.30;99.90
12720;DHT22;6424;48.520;11.228;2023-02-28T06:55:22;-3.20;99.90
12720;DHT22;6424;48.520;11.228;2023-02-28T06:58:03;-3.10;99.90
12720;DHT22;6424;48.520;11.228;2023-02-28T07:00:44;-3.10;99.90
12720;DHT22;6424;48.520;11.228;2023-02-28T07:03:25;-3.00;99.90
12720;DHT22;6424;48.520;11.228;2023-02-28T07:06:06;-2.90;99.90
12720;DHT22;6424;48.520;11.228;2023-02-28T07:08:33;-2.80;99.90
12720;DHT22;6424;48.520;11.228;2023-02-28T07:11:15;-2.70;99.90
12720;DHT22;6424;48.520;11.228;2023-02-28T07:13:56;-2.60;99.90
12720;DHT22;6424;48.520;11.228;2023-02-28T07:16:37;-2.30;99.90
12720;DHT22;6424;48.520;11.228;2023-02-28T07:19:18;-1.80;99.90
12720;DHT22;6424;48.520;11.228;2023-02-28T07:21:59;-1.40;99.90
12720;DHT22;6424;48.520;11.228;2023-02-28T07:24:40;-1.10;99.90
12720;DHT22;6424;48.520;11.228;2023-02-28T07:27:20;-0.90;99.90
12720;DHT22;6424;48.520;11.228;2023-02-28T07:30:06;-0.80;99.90
12720;DHT22;6424;48.520;11.228;2023-02-28T07:32:47;-0.70;99.90
12720;DHT22;6424;48.520;11.228;2023-02-28T07:35:28;-0.80;99.90
12720;DHT22;6424;48.520;11.228;2023-02-28T07:38:09;-0.80;99.90
12720;DHT22;6424;48.520;11.228;2023-02-28T07:40:50;-0.60;99.90
12720;DHT22;6424;48.520;11.228;2023-02-28T07:43:15;-0.70;99.90
12720;DHT22;6424;48.520;11.228;2023-02-28T07:46:08;-0.70;99.90
12720;DHT22;6424;48.520;11.228;2023-02-28T07:48:49;-0.60;99.90
12720;DHT22;6424;48.520;11.228;2023-02-28T07:51:30;-0.60;99.90
12720;DHT22;6424;48.520;11.228;2023-02-28T07:54:11;-0.60;99.90
12720;DHT22;6424;48.520;11.228;2023-02-28T07:56:36;-0.40;99.90
12720;DHT22;6424;48.520;11.228;2023-02-28T07:59:17;-0.30;99.90
12720;DHT22;6424;48.520;11.228;2023-02-28T08:01:58;-0.20;99.90
12720;DHT22;6424;48.520;11.228;2023-02-28T08:04:39;-0.10;99.90
12720;DHT22;6424;48.520;11.228;2023-02-28T08:07:20;-0.10;99.90
12720;DHT22;6424;48.520;11.228;2023-02-28T08:10:01;-0.10;99.90
12720;DHT22;6424;48.520;11.228;2023-02-28T08:12:42;-0.10;99.90
12720;DHT22;6424;48.520;11.228;2023-02-28T08:15:22;-0.10;99.90
12720;DHT22;6424;48.520;11.228;2023-02-28T08:18:03;-0.20;99.90
12720;DHT22;6424;48.520;11.228;2023-02-28T08:20:29;-0.30;99.90
12720;DHT22;6424;48.520;11.228;2023-02-28T08:22:56;-0.20;99.90
12720;DHT22;6424;48.520;11.228;2023-02-28T08:25:36;-0.20;99.90
12720;DHT22;6424;48.520;11.228;2023-02-28T08:28:17;-0.10;99.90
12720;DHT22;6424;48.520;11.228;2023-02-28T08:30:58;-0.10;99.90
12720;DHT22;6424;48.520;11.228;2023-02-28T08:33:40;0.00;99.90
12720;DHT22;6424;48.520;11.228;2023-02-28T08:36:21;0.00;99.90
12720;DHT22;6424;48.520;11.228;2023-02-28T08:39:02;0.10;99.90
12720;DHT22;6424;48.520;11.228;2023-02-28T08:41:29;0.20;99.90
12720;DHT22;6424;48.520;11.228;2023-02-28T08:44:09;0.20;99.90
12720;DHT22;6424;48.520;11.228;2023-02-28T08:46:50;0.10;99.90
12720;DHT22;6424;48.520;11.228;2023-02-28T08:49:31;0.20;99.90
12720;DHT22;6424;48.520;11.228;2023-02-28T08:52:11;0.20;99.90
12720;DHT22;6424;48.520;11.228;2023-02-28T08:54:52;0.20;99.90
12720;DHT22;6424;48.520;11.228;2023-02-28T08:57:33;0.30;99.90
12720;DHT22;6424;48.520;11.228;2023-02-28T09:00:14;0.20;99.90
12720;DHT22;6424;48.520;11.228;2023-02-28T09:02:55;0.30;99.90
12720;DHT22;6424;48.520;11.228;2023-02-28T09:05:36;0.50;99.90
12720;DHT22;6424;48.520;11.228;2023-02-28T09:08:01;0.70;99.90
12720;DHT22;6424;48.520;11.228;2023-02-28T09:10:42;0.80;99.90
12720;DHT22;6424;48.520;11.228;2023-02-28T09:13:27;0.80;99.90
12720;DHT22;6424;48.520;11.228;2023-02-28T09:16:11;0.80;99.90
12720;DHT22;6424;48.520;11.228;2023-02-28T09:18:52;0.90;99.90
12720;DHT22;6424;48.520;11.228;2023-02-28T09:21:33;1.00;99.90
12720;DHT22;6424;48.520;11.228;2023-02-28T09:24:13;1.10;99.90
12720;DHT22;6424;48.520;11.228;2023-02-28T09:26:40;1.10;99.90
12720;DHT22;6424;48.520;11.228;2023-02-28T09:29:21;1.20;99.90
12720;DHT22;6424;48.520;11.228;2023-02-28T09:32:02;1.20;99.90
12720;DHT22;6424;48.520;11.228;2023-02-28T09:34:28;1.20;99.90
12720;DHT22;6424;48.520;11.228;2023-02-28T09:37:11;1.30;99.90
12720;DHT22;6424;48.520;11.228;2023-02-28T09:39:51;1.30;99.90
12720;DHT22;6424;48.520;11.228;2023-02-28T09:42:34;1.40;99.90
12720;DHT22;6424;48.520;11.228;2023-02-28T09:45:24;1.50;99.90
12720;DHT22;6424;48.520;11.228;2023-02-28T09:48:14;1.60;99.90
12720;DHT22;6424;48.520;11.228;2023-02-28T09:51:02;1.70;99.90
12720;DHT22;6424;48.520;11.228;2023-02-28T09:53:43;1.60;99.90
12720;DHT22;6424;48.520;11.228;2023-02-28T09:56:32;1.60;99.90
12720;DHT22;6424;48.520;11.228;2023-02-28T10:05:23;1.70;99.90
12720;DHT22;6424;48.520;11.228;2023-02-28T10:08:25;1.80;99.90
12720;DHT22;6424;48.520;11.228;2023-02-28T10:11:09;1.80;99.90
12720;DHT22;6424;48.520;11.228;2023-02-28T10:14:24;1.90;99.90
12720;DHT22;6424;48.520;11.228;2023-02-28T10:17:20;1.90;99.90
12720;DHT22;6424;48.520;11.228;2023-02-28T10:20:07;2.00;99.90
12720;DHT22;6424;48.520;11.228;2023-02-28T10:22:57;2.00;99.90
12720;DHT22;6424;48.520;11.228;2023-02-28T10:25:39;2.10;99.90
12720;DHT22;6424;48.520;11.228;2023-02-28T10:28:20;2.20;99.90
12720;DHT22;6424;48.520;11.228;2023-02-28T10:31:01;2.30;99.90
12720;DHT22;6424;48.520;11.228;2023-02-28T10:33:42;2.30;99.90
12720;DHT22;6424;48.520;11.228;2023-02-28T10:36:23;2.40;99.90
12720;DHT22;6424;48.520;11.228;2023-02-28T10:39:43;2.40;99.90
12720;DHT22;6424;48.520;11.228;2023-02-28T10:42:26;2.40;99.90
12720;DHT22;6424;48.520;11.228;2023-02-28T10:47:59;2.40;99.90
12720;DHT22;6424;48.520;11.228;2023-02-28T10:53:46;2.60;99.90
12720;DHT22;6424;48.520;11.228;2023-02-28T10:56:28;2.70;99.90
12720;DHT22;6424;48.520;11.228;2023-02-28T10:59:28;2.80;99.90
12720;DHT22;6424;48.520;11.228;2023-02-28T11:01:55;2.80;99.90
12720;DHT22;6424;48.520;11.228;2023-02-28T11:04:36;2.80;99.90
12720;DHT22;6424;48.520;11.228;2023-02-28T11:07:22;2.80;99.90
12720;DHT22;6424;48.520;11.228;2023-02-28T11:10:04;2.90;99.90
12720;DHT22;6424;48.520;11.228;2023-02-28T11:12:45;2.90;99.90
12720;DHT22;6424;48.520;11.228;2023-02-28T11:15:32;3.00;99.90
12720;DHT22;6424;48.520;11.228;2023-02-28T11:18:21;2.80;99.90
12720;DHT22;6424;48.520;11.228;2023-02-28T11:21:03;2.80;99.90
12720;DHT22;6424;48.520;11.228;2023-02-28T11:23:44;2.80;99.90
12720;DHT22;6424;48.520;11.228;2023-02-28T11:26:43;2.90;99.90
12720;DHT22;6424;48.520;11.228;2023-02-28T11:29:28;2.90;99.90
12720;DHT22;6424;48.520;11.228;2023-02-28T11:32:21;3.10;99.90
12720;DHT22;6424;48.520;11.228;2023-02-28T11:35:02;3.10;99.90
12720;DHT22;6424;48.520;11.228;2023-02-28T11:37:43;3.20;99.90
12720;DHT22;6424;48.520;11.228;2023-02-28T11:43:30;3.20;99.90
12720;DHT22;6424;48.520;11.228;2023-02-28T11:46:46;3.20;99.90
12720;DHT22;6424;48.520;11.228;2023-02-28T11:49:47;3.30;99.90
12720;DHT22;6424;48.520;11.228;2023-02-28T11:52:30;3.30;99.90
12720;DHT22;6424;48.520;11.228;2023-02-28T11:55:24;3.30;99.90
12720;DHT22;6424;48.520;11.228;2023-02-28T12:04:25;3.50;99.90
12720;DHT22;6424;48.520;11.228;2023-02-28T12:07:21;3.50;99.90
12720;DHT22;6424;48.520;11.228;2023-02-28T12:10:24;3.50;99.90
12720;DHT22;6424;48.520;11.228;2023-02-28T12:19:24;3.40;99.90
12720;DHT22;6424;48.520;11.228;2023-02-28T12:22:28;3.40;99.90
12720;DHT22;6424;48.520;11.228;2023-02-28T12:28:13;3.40;99.90
12720;DHT22;6424;48.520;11.228;2023-02-28T12:31:01;3.40;99.90
12720;DHT22;6424;48.520;11.228;2023-02-28T12:33:50;3.40;99.90
12720;DHT22;6424;48.520;11.228;2023-02-28T12:36:34;3.40;99.90
12720;DHT22;6424;48.520;11.228;2023-02-28T12:39:25;3.40;99.90
12720;DHT22;6424;48.520;11.228;2023-02-28T12:42:11;3.50;99.90
12720;DHT22;6424;48.520;11.228;2023-02-28T12:44:59;3.50;99.90
12720;DHT22;6424;48.520;11.228;2023-02-28T12:47:43;3.60;99.90
12720;DHT22;6424;48.520;11.228;2023-02-28T12:50:10;3.60;99.90
12720;DHT22;6424;48.520;11.228;2023-02-28T12:56:08;3.70;99.90
12720;DHT22;6424;48.520;11.228;2023-02-28T12:58:54;3.70;99.90
12720;DHT22;6424;48.520;11.228;2023-02-28T13:02:39;3.70;99.90
12720;DHT22;6424;48.520;11.228;2023-02-28T13:11:30;3.90;99.90
12720;DHT22;6424;48.520;11.228;2023-02-28T13:28:09;3.90;99.90
12720;DHT22;6424;48.520;11.228;2023-02-28T13:33:35;4.00;99.90
12720;DHT22;6424;48.520;11.228;2023-02-28T13:48:03;4.20;99.90
12720;DHT22;6424;48.520;11.228;2023-02-28T13:50:45;4.20;99.90
12720;DHT22;6424;48.520;11.228;2023-02-28T13:53:53;4.20;99.90
12720;DHT22;6424;48.520;11.228;2023-02-28T13:59:59;4.30;99.90
12720;DHT22;6424;48.520;11.228;2023-02-28T14:05:37;4.40;99.90
12720;DHT22;6424;48.520;11.228;2023-02-28T14:08:21;4.50;99.90
12720;DHT22;6424;48.520;11.228;2023-02-28T14:11:06;4.40;99.90
12720;DHT22;6424;48.520;11.228;2023-02-28T14:13:49;4.30;99.90
12720;DHT22;6424;48.520;11.228;2023-02-28T14:16:44;4.20;99.90
12720;DHT22;6424;48.520;11.228;2023-02-28T14:19:27;4.10;99.90
12720;DHT22;6424;48.520;11.228;2023-02-28T14:22:40;4.10;99.90
12720;DHT22;6424;48.520;11.228;2023-02-28T14:25:52;4.10;99.90
12720;DHT22;6424;48.520;11.228;2023-02-28T14:31:54;4.10;99.90
12720;DHT22;6424;48.520;11.228;2023-02-28T14:37:34;4.10;99.90
12720;DHT22;6424;48.520;11.228;2023-02-28T14:40:24;4.10;99.90
12720;DHT22;6424;48.520;11.228;2023-02-28T14:43:19;4.00;99.90
12720;DHT22;6424;48.520;11.228;2023-02-28T14:46:03;4.00;99.90
12720;DHT22;6424;48.520;11.228;2023-02-28T14:48:48;4.10;99.90
12720;DHT22;6424;48.520;11.228;2023-02-28T14:51:30;4.10;99.90
12720;DHT22;6424;48.520;11.228;2023-02-28T14:54:15;4.00;99.90
12720;DHT22;6424;48.520;11.228;2023-02-28T14:56:41;4.10;99.90
12720;DHT22;6424;48.520;11.228;2023-02-28T14:59:29;4.00;99.90
12720;DHT22;6424;48.520;11.228;2023-02-28T15:02:34;4.00;99.90
12720;DHT22;6424;48.520;11.228;2023-02-28T15:08:14;4.10;99.90
12720;DHT22;6424;48.520;11.228;2023-02-28T15:10:56;4.10;99.90
12720;DHT22;6424;48.520;11.228;2023-02-28T15:16:36;4.00;99.90
12720;DHT22;6424;48.520;11.228;2023-02-28T15:19:26;3.90;99.90
12720;DHT22;6424;48.520;11.228;2023-02-28T15:22:15;3.90;99.90
12720;DHT22;6424;48.520;11.228;2023-02-28T15:24:58;3.90;99.90
12720;DHT22;6424;48.520;11.228;2023-02-28T15:27:30;3.80;99.90
12720;DHT22;6424;48.520;11.228;2023-02-28T15:30:33;3.80;99.90
12720;DHT22;6424;48.520;11.228;2023-02-28T15:36:14;3.80;99.90
12720;DHT22;6424;48.520;11.228;2023-02-28T15:38:55;3.80;99.90
12720;DHT22;6424;48.520;11.228;2023-02-28T15:41:37;3.80;99.90
12720;DHT22;6424;48.520;11.228;2023-02-28T15:44:33;3.80;99.90
12720;DHT22;6424;48.520;11.228;2023-02-28T15:50:04;3.80;99.90
12720;DHT22;6424;48.520;11.228;2023-02-28T15:52:47;3.80;99.90
12720;DHT22;6424;48.520;11.228;2023-02-28T15:55:29;3.70;99.90
12720;DHT22;6424;48.520;11.228;2023-02-28T15:58:12;3.70;99.90
12720;DHT22;6424;48.520;11.228;2023-02-28T16:01:04;3.70;99.90
12720;DHT22;6424;48.520;11.228;2023-02-28T16:03:48;3.70;99.90
12720;DHT22;6424;48.520;11.228;2023-02-28T16:09:20;3.60;99.90
12720;DHT22;6424;48.520;11.228;2023-02-28T16:12:02;3.50;99.90
12720;DHT22;6424;48.520;11.228;2023-02-28T16:14:30;3.50;99.90
12720;DHT22;6424;48.520;11.228;2023-02-28T16:17:20;3.40;99.90
12720;DHT22;6424;48.520;11.228;2023-02-28T16:20:15;3.40;99.90
12720;DHT22;6424;48.520;11.228;2023-02-28T16:22:57;3.40;99.90
12720;DHT22;6424;48.520;11.228;2023-02-28T16:25:43;3.30;99.90
12720;DHT22;6424;48.520;11.228;2023-02-28T16:28:33;3.30;99.90
12720;DHT22;6424;48.520;11.228;2023-02-28T16:31:14;3.20;99.90
12720;DHT22;6424;48.520;11.228;2023-02-28T16:33:43;3.20;99.90
12720;DHT22;6424;48.520;11.228;2023-02-28T16:36:20;3.20;99.90
12720;DHT22;6424;48.520;11.228;2023-02-28T16:39:01;3.20;99.90
12720;DHT22;6424;48.520;11.228;2023-02-28T16:41:28;3.10;99.90
12720;DHT22;6424;48.520;11.228;2023-02-28T16:47:28;3.00;99.90
12720;DHT22;6424;48.520;11.228;2023-02-28T16:50:16;3.00;99.90
12720;DHT22;6424;48.520;11.228;2023-02-28T16:52:58;3.00;99.90
12720;DHT22;6424;48.520;11.228;2023-02-28T16:55:25;3.00;99.90
12720;DHT22;6424;48.520;11.228;2023-02-28T16:57:57;2.90;99.90
12720;DHT22;6424;48.520;11.228;2023-02-28T17:00:38;2.90;99.90
12720;DHT22;6424;48.520;11.228;2023-02-28T17:03:04;2.90;99.90
12720;DHT22;6424;48.520;11.228;2023-02-28T17:05:36;2.80;99.90
12720;DHT22;6424;48.520;11.228;2023-02-28T17:08:18;2.80;99.90
12720;DHT22;6424;48.520;11.228;2023-02-28T17:10:44;2.70;99.90
12720;DHT22;6424;48.520;11.228;2023-02-28T17:13:25;2.60;99.90
12720;DHT22;6424;48.520;11.228;2023-02-28T17:16:07;2.60;99.90
12720;DHT22;6424;48.520;11.228;2023-02-28T17:18:50;2.50;99.90
12720;DHT22;6424;48.520;11.228;2023-02-28T17:21:31;2.40;99.90
12720;DHT22;6424;48.520;11.228;2023-02-28T17:24:13;2.30;99.90
12720;DHT22;6424;48.520;11.228;2023-02-28T17:26:54;2.20;99.90
12720;DHT22;6424;48.520;11.228;2023-02-28T17:29:35;2.10;99.90
12720;DHT22;6424;48.520;11.228;2023-02-28T17:32:16;2.00;99.90
12720;DHT22;6424;48.520;11.228;2023-02-28T17:34:57;2.00;99.90
12720;DHT22;6424;48.520;11.228;2023-02-28T17:37:37;1.90;99.90
12720;DHT22;6424;48.520;11.228;2023-02-28T17:40:22;1.90;99.90
12720;DHT22;6424;48.520;11.228;2023-02-28T17:43:03;1.70;99.90
12720;DHT22;6424;48.520;11.228;2023-02-28T17:45:43;1.70;99.90
12720;DHT22;6424;48.520;11.228;2023-02-28T17:48:24;1.60;99.90
12720;DHT22;6424;48.520;11.228;2023-02-28T17:51:05;1.60;99.90
12720;DHT22;6424;48.520;11.228;2023-02-28T17:53:46;1.50;99.90
12720;DHT22;6424;48.520;11.228;2023-02-28T17:56:27;1.50;99.90
12720;DHT22;6424;48.520;11.228;2023-02-28T17:58:54;1.50;99.90
12720;DHT22;6424;48.520;11.228;2023-02-28T18:01:35;1.40;99.90
12720;DHT22;6424;48.520;11.228;2023-02-28T18:04:16;1.30;99.90
12720;DHT22;6424;48.520;11.228;2023-02-28T18:06:45;1.30;99.90
12720;DHT22;6424;48.520;11.228;2023-02-28T18:09:30;1.20;99.90
12720;DHT22;6424;48.520;11.228;2023-02-28T18:12:11;1.10;99.90
12720;DHT22;6424;48.520;11.228;2023-02-28T18:14:51;1.00;99.90
12720;DHT22;6424;48.520;11.228;2023-02-28T18:17:32;1.00;99.90
12720;DHT22;6424;48.520;11.228;2023-02-28T18:20:13;1.00;99.90
12720;DHT22;6424;48.520;11.228;2023-02-28T18:22:54;1.00;99.90
12720;DHT22;6424;48.520;11.228;2023-02-28T18:25:35;0.90;99.90
12720;DHT22;6424;48.520;11.228;2023-02-28T18:28:15;0.90;99.90
12720;DHT22;6424;48.520;11.228;2023-02-28T18:30:56;0.90;99.90
12720;DHT22;6424;48.520;11.228;2023-02-28T18:33:38;0.80;99.90
12720;DHT22;6424;48.520;11.228;2023-02-28T18:36:20;0.70;99.90
12720;DHT22;6424;48.520;11.228;2023-02-28T18:39:01;0.70;99.90
12720;DHT22;6424;48.520;11.228;2023-02-28T18:41:42;0.60;99.90
12720;DHT22;6424;48.520;11.228;2023-02-28T18:44:08;0.60;99.90
12720;DHT22;6424;48.520;11.228;2023-02-28T18:46:49;0.50;99.90
12720;DHT22;6424;48.520;11.228;2023-02-28T18:49:30;0.50;99.90
12720;DHT22;6424;48.520;11.228;2023-02-28T18:52:13;0.50;99.90
12720;DHT22;6424;48.520;11.228;2023-02-28T18:54:54;0.40;99.90
12720;DHT22;6424;48.520;11.228;2023-02-28T18:57:35;0.40;99.90
12720;DHT22;6424;48.520;11.228;2023-02-28T19:00:16;0.40;99.90
12720;DHT22;6424;48.520;11.228;2023-02-28T19:03:02;0.30;99.90
12720;DHT22;6424;48.520;11.228;2023-02-28T19:05:43;0.30;99.90
12720;DHT22;6424;48.520;11.228;2023-02-28T19:08:24;0.30;99.90
12720;DHT22;6424;48.520;11.228;2023-02-28T19:11:10;0.20;99.90
12720;DHT22;6424;48.520;11.228;2023-02-28T19:13:51;0.30;99.90
12720;DHT22;6424;48.520;11.228;2023-02-28T19:16:32;0.30;99.90
12720;DHT22;6424;48.520;11.228;2023-02-28T19:19:13;0.20;99.90
12720;DHT22;6424;48.520;11.228;2023-02-28T19:21:54;0.10;99.90
12720;DHT22;6424;48.520;11.228;2023-02-28T19:24:35;0.10;99.90
12720;DHT22;6424;48.520;11.228;2023-02-28T19:27:16;0.10;99.90
12720;DHT22;6424;48.520;11.228;2023-02-28T19:29:59;0.10;99.90
12720;DHT22;6424;48.520;11.228;2023-02-28T19:32:25;0.00;99.90
12720;DHT22;6424;48.520;11.228;2023-02-28T19:35:06;0.00;99.90